sensor_id;sensor_type;location;lat;lon;timestamp;P1;durP1;ratioP1;P2;durP2;ratioP2
819;SDS011;392;48.838;2.322;2023-07-13T00:02:17;3.63;;;3.33;;
819;SDS011;392;48.838;2.322;2023-07-13T00:04:44;3.13;;;2.90;;
819;SDS011;392;48.838;2.322;2023-07-13T00:07:12;3.07;;;2.83;;
819;SDS011;392;48.838;2.322;2023-07-13T00:09:40;2.97;;;2.73;;
819;SDS011;392;48.838;2.322;2023-07-13T00:12:21;2.47;;;2.33;;
819;SDS011;392;48.838;2.322;2023-07-13T00:14:51;3.20;;;2.40;;
819;SDS011;392;48.838;2.322;2023-07-13T00:17:20;2.13;;;2.00;;
819;SDS011;392;48.838;2.322;2023-07-13T00:19:47;2.50;;;2.30;;
819;SDS011;392;48.838;2.322;2023-07-13T00:22:14;4.27;;;2.87;;
819;SDS011;392;48.838;2.322;2023-07-13T00:24:43;2.37;;;2.20;;
819;SDS011;392;48.838;2.322;2023-07-13T00:27:11;2.90;;;2.70;;
819;SDS011;392;48.838;2.322;2023-07-13T00:29:39;4.03;;;2.87;;
819;SDS011;392;48.838;2.322;2023-07-13T00:32:06;2.87;;;2.67;;
819;SDS011;392;48.838;2.322;2023-07-13T00:34:37;3.13;;;2.83;;
819;SDS011;392;48.838;2.322;2023-07-13T00:37:05;2.70;;;2.50;;
819;SDS011;392;48.838;2.322;2023-07-13T00:39:34;2.93;;;2.53;;
819;SDS011;392;48.838;2.322;2023-07-13T00:42:02;4.83;;;3.00;;
819;SDS011;392;48.838;2.322;2023-07-13T00:44:30;7.63;;;3.37;;
819;SDS011;392;48.838;2.322;2023-07-13T00:46:58;6.47;;;4.57;;
819;SDS011;392;48.838;2.322;2023-07-13T00:49:26;4.90;;;3.60;;
819;SDS011;392;48.838;2.322;2023-07-13T00:51:58;4.90;;;3.17;;
819;SDS011;392;48.838;2.322;2023-07-13T00:54:34;3.30;;;3.00;;
819;SDS011;392;48.838;2.322;2023-07-13T00:57:05;5.50;;;4.00;;
819;SDS011;392;48.838;2.322;2023-07-13T00:59:39;6.53;;;3.50;;
819;SDS011;392;48.838;2.322;2023-07-13T01:02:09;4.93;;;2.93;;
819;SDS011;392;48.838;2.322;2023-07-13T01:04:37;4.33;;;3.10;;
819;SDS011;392;48.838;2.322;2023-07-13T01:07:06;6.40;;;4.23;;
819;SDS011;392;48.838;2.322;2023-07-13T01:09:34;5.10;;;3.17;;
819;SDS011;392;48.838;2.322;2023-07-13T01:12:01;6.50;;;4.20;;
819;SDS011;392;48.838;2.322;2023-07-13T01:14:30;5.30;;;3.40;;
819;SDS011;392;48.838;2.322;2023-07-13T01:16:57;7.00;;;4.27;;
819;SDS011;392;48.838;2.322;2023-07-13T01:19:28;4.40;;;3.37;;
819;SDS011;392;48.838;2.322;2023-07-13T01:22:04;2.90;;;2.60;;
819;SDS011;392;48.838;2.322;2023-07-13T01:24:34;7.00;;;4.30;;
819;SDS011;392;48.838;2.322;2023-07-13T01:27:02;5.67;;;3.07;;
819;SDS011;392;48.838;2.322;2023-07-13T01:29:31;3.63;;;3.00;;
819;SDS011;392;48.838;2.322;2023-07-13T01:32:00;7.23;;;4.67;;
819;SDS011;392;48.838;2.322;2023-07-13T01:34:28;7.20;;;4.67;;
819;SDS011;392;48.838;2.322;2023-07-13T01:36:55;5.60;;;3.83;;
819;SDS011;392;48.838;2.322;2023-07-13T01:39:24;8.37;;;3.67;;
819;SDS011;392;48.838;2.322;2023-07-13T01:41:51;5.07;;;3.53;;
819;SDS011;392;48.838;2.322;2023-07-13T01:44:19;5.43;;;3.10;;
819;SDS011;392;48.838;2.322;2023-07-13T01:46:47;3.33;;;2.87;;
819;SDS011;392;48.838;2.322;2023-07-13T01:49:14;5.10;;;3.50;;
819;SDS011;392;48.838;2.322;2023-07-13T01:51:42;4.20;;;3.20;;
819;SDS011;392;48.838;2.322;2023-07-13T01:54:10;3.97;;;3.13;;
819;SDS011;392;48.838;2.322;2023-07-13T01:56:39;3.27;;;2.63;;
819;SDS011;392;48.838;2.322;2023-07-13T01:59:07;3.37;;;3.00;;
819;SDS011;392;48.838;2.322;2023-07-13T02:01:35;2.90;;;2.70;;
819;SDS011;392;48.838;2.322;2023-07-13T02:04:02;6.20;;;3.50;;
819;SDS011;392;48.838;2.322;2023-07-13T02:06:32;2.93;;;2.63;;
819;SDS011;392;48.838;2.322;2023-07-13T02:09:00;2.60;;;2.40;;
819;SDS011;392;48.838;2.322;2023-07-13T02:11:27;4.20;;;2.40;;
819;SDS011;392;48.838;2.322;2023-07-13T02:14:00;2.57;;;2.33;;
819;SDS011;392;48.838;2.322;2023-07-13T02:16:29;2.60;;;2.40;;
819;SDS011;392;48.838;2.322;2023-07-13T02:18:57;4.40;;;2.73;;
819;SDS011;392;48.838;2.322;2023-07-13T02:21:26;3.00;;;2.47;;
819;SDS011;392;48.838;2.322;2023-07-13T02:23:53;2.77;;;2.57;;
819;SDS011;392;48.838;2.322;2023-07-13T02:26:21;3.00;;;2.80;;
819;SDS011;392;48.838;2.322;2023-07-13T02:28:48;3.07;;;2.77;;
819;SDS011;392;48.838;2.322;2023-07-13T02:31:20;4.77;;;2.63;;
819;SDS011;392;48.838;2.322;2023-07-13T02:33:47;3.10;;;2.30;;
819;SDS011;392;48.838;2.322;2023-07-13T02:36:15;2.90;;;2.57;;
819;SDS011;392;48.838;2.322;2023-07-13T02:38:44;3.07;;;2.77;;
819;SDS011;392;48.838;2.322;2023-07-13T02:41:11;4.87;;;2.33;;
819;SDS011;392;48.838;2.322;2023-07-13T02:43:39;2.70;;;2.50;;
819;SDS011;392;48.838;2.322;2023-07-13T02:46:08;2.90;;;2.73;;
819;SDS011;392;48.838;2.322;2023-07-13T02:48:37;2.20;;;2.00;;
819;SDS011;392;48.838;2.322;2023-07-13T02:51:06;2.37;;;2.17;;
819;SDS011;392;48.838;2.322;2023-07-13T02:53:34;2.27;;;2.10;;
819;SDS011;392;48.838;2.322;2023-07-13T02:56:02;2.17;;;2.00;;
819;SDS011;392;48.838;2.322;2023-07-13T02:58:30;2.30;;;2.20;;
819;SDS011;392;48.838;2.322;2023-07-13T03:00:57;3.43;;;2.40;;
819;SDS011;392;48.838;2.322;2023-07-13T03:03:25;3.03;;;1.77;;
819;SDS011;392;48.838;2.322;2023-07-13T03:05:59;2.50;;;2.30;;
819;SDS011;392;48.838;2.322;2023-07-13T03:08:34;1.80;;;1.70;;
819;SDS011;392;48.838;2.322;2023-07-13T03:11:02;2.20;;;2.10;;
819;SDS011;392;48.838;2.322;2023-07-13T03:13:34;2.07;;;1.97;;
819;SDS011;392;48.838;2.322;2023-07-13T03:16:04;2.50;;;2.17;;
819;SDS011;392;48.838;2.322;2023-07-13T03:18:32;2.10;;;1.93;;
819;SDS011;392;48.838;2.322;2023-07-13T03:21:04;2.50;;;1.93;;
819;SDS011;392;48.838;2.322;2023-07-13T03:23:32;2.60;;;2.40;;
819;SDS011;392;48.838;2.322;2023-07-13T03:26:04;2.93;;;2.10;;
819;SDS011;392;48.838;2.322;2023-07-13T03:28:34;2.00;;;1.90;;
819;SDS011;392;48.838;2.322;2023-07-13T03:31:04;3.27;;;2.60;;
819;SDS011;392;48.838;2.322;2023-07-13T03:33:42;3.03;;;2.33;;
819;SDS011;392;48.838;2.322;2023-07-13T03:36:13;2.20;;;2.00;;
819;SDS011;392;48.838;2.322;2023-07-13T03:38:44;3.07;;;2.87;;
819;SDS011;392;48.838;2.322;2023-07-13T03:41:13;8.57;;;2.17;;
819;SDS011;392;48.838;2.322;2023-07-13T03:43:42;2.33;;;2.13;;
819;SDS011;392;48.838;2.322;2023-07-13T03:46:10;3.00;;;2.67;;
819;SDS011;392;48.838;2.322;2023-07-13T03:48:39;3.07;;;1.90;;
819;SDS011;392;48.838;2.322;2023-07-13T03:51:08;2.30;;;2.10;;
819;SDS011;392;48.838;2.322;2023-07-13T03:53:38;2.30;;;2.10;;
819;SDS011;392;48.838;2.322;2023-07-13T03:56:07;1.93;;;1.80;;
819;SDS011;392;48.838;2.322;2023-07-13T03:58:36;2.93;;;2.67;;
819;SDS011;392;48.838;2.322;2023-07-13T04:01:12;2.53;;;2.33;;
819;SDS011;392;48.838;2.322;2023-07-13T04:03:41;2.80;;;2.30;;
819;SDS011;392;48.838;2.322;2023-07-13T04:06:13;2.00;;;1.90;;
819;SDS011;392;48.838;2.322;2023-07-13T04:08:48;2.40;;;2.30;;
819;SDS011;392;48.838;2.322;2023-07-13T04:11:18;2.40;;;2.30;;
819;SDS011;392;48.838;2.322;2023-07-13T04:13:46;2.20;;;2.10;;
819;SDS011;392;48.838;2.322;2023-07-13T04:16:14;2.53;;;2.03;;
819;SDS011;392;48.838;2.322;2023-07-13T04:18:44;3.47;;;2.27;;
819;SDS011;392;48.838;2.322;2023-07-13T04:21:12;2.70;;;2.30;;
819;SDS011;392;48.838;2.322;2023-07-13T04:23:40;2.80;;;2.20;;
819;SDS011;392;48.838;2.322;2023-07-13T04:26:09;2.27;;;1.97;;
819;SDS011;392;48.838;2.322;2023-07-13T04:28:37;2.23;;;2.03;;
819;SDS011;392;48.838;2.322;2023-07-13T04:31:04;2.63;;;2.43;;
819;SDS011;392;48.838;2.322;2023-07-13T04:33:32;2.33;;;2.13;;
819;SDS011;392;48.838;2.322;2023-07-13T04:35:59;3.77;;;2.50;;
819;SDS011;392;48.838;2.322;2023-07-13T04:38:28;2.33;;;2.13;;
819;SDS011;392;48.838;2.322;2023-07-13T04:40:58;3.83;;;2.37;;
819;SDS011;392;48.838;2.322;2023-07-13T04:43:29;2.33;;;2.20;;
819;SDS011;392;48.838;2.322;2023-07-13T04:45:57;2.10;;;2.00;;
819;SDS011;392;48.838;2.322;2023-07-13T04:48:30;2.20;;;2.10;;
819;SDS011;392;48.838;2.322;2023-07-13T04:50:58;3.60;;;2.53;;
819;SDS011;392;48.838;2.322;2023-07-13T04:53:27;2.10;;;2.00;;
819;SDS011;392;48.838;2.322;2023-07-13T04:55:54;2.00;;;1.90;;
819;SDS011;392;48.838;2.322;2023-07-13T04:58:21;2.30;;;2.20;;
819;SDS011;392;48.838;2.322;2023-07-13T05:00:53;2.13;;;2.00;;
819;SDS011;392;48.838;2.322;2023-07-13T05:03:26;3.33;;;2.33;;
819;SDS011;392;48.838;2.322;2023-07-13T05:05:54;3.00;;;2.27;;
819;SDS011;392;48.838;2.322;2023-07-13T05:08:23;2.03;;;1.90;;
819;SDS011;392;48.838;2.322;2023-07-13T05:10:51;3.63;;;2.40;;
819;SDS011;392;48.838;2.322;2023-07-13T05:13:18;2.50;;;2.30;;
819;SDS011;392;48.838;2.322;2023-07-13T05:15:47;2.77;;;2.60;;
819;SDS011;392;48.838;2.322;2023-07-13T05:18:23;2.37;;;2.20;;
819;SDS011;392;48.838;2.322;2023-07-13T05:20:56;2.77;;;2.57;;
819;SDS011;392;48.838;2.322;2023-07-13T05:23:28;3.00;;;2.77;;
819;SDS011;392;48.838;2.322;2023-07-13T05:25:56;2.40;;;2.30;;
819;SDS011;392;48.838;2.322;2023-07-13T05:28:24;2.13;;;2.03;;
819;SDS011;392;48.838;2.322;2023-07-13T05:30:52;2.47;;;2.30;;
819;SDS011;392;48.838;2.322;2023-07-13T05:33:21;4.53;;;2.17;;
819;SDS011;392;48.838;2.322;2023-07-13T05:35:49;2.57;;;2.37;;
819;SDS011;392;48.838;2.322;2023-07-13T05:38:17;2.63;;;2.43;;
819;SDS011;392;48.838;2.322;2023-07-13T05:40:45;3.20;;;2.80;;
819;SDS011;392;48.838;2.322;2023-07-13T05:43:13;3.13;;;2.93;;
819;SDS011;392;48.838;2.322;2023-07-13T05:45:40;3.93;;;2.50;;
819;SDS011;392;48.838;2.322;2023-07-13T05:48:08;2.47;;;2.37;;
819;SDS011;392;48.838;2.322;2023-07-13T05:50:37;4.13;;;2.80;;
819;SDS011;392;48.838;2.322;2023-07-13T05:53:04;2.70;;;2.50;;
819;SDS011;392;48.838;2.322;2023-07-13T05:55:31;3.40;;;3.13;;
819;SDS011;392;48.838;2.322;2023-07-13T05:58:00;4.17;;;2.93;;
819;SDS011;392;48.838;2.322;2023-07-13T06:00:27;2.50;;;2.40;;
819;SDS011;392;48.838;2.322;2023-07-13T06:02:55;3.60;;;3.30;;
819;SDS011;392;48.838;2.322;2023-07-13T06:05:23;3.40;;;3.10;;
819;SDS011;392;48.838;2.322;2023-07-13T06:07:53;3.10;;;2.90;;
819;SDS011;392;48.838;2.322;2023-07-13T06:10:21;6.33;;;3.97;;
819;SDS011;392;48.838;2.322;2023-07-13T06:12:48;3.10;;;2.90;;
819;SDS011;392;48.838;2.322;2023-07-13T06:15:16;2.47;;;2.10;;
819;SDS011;392;48.838;2.322;2023-07-13T06:17:44;2.37;;;2.27;;
819;SDS011;392;48.838;2.322;2023-07-13T06:20:11;2.83;;;2.63;;
819;SDS011;392;48.838;2.322;2023-07-13T06:22:39;4.10;;;3.47;;
819;SDS011;392;48.838;2.322;2023-07-13T06:25:08;2.20;;;2.00;;
819;SDS011;392;48.838;2.322;2023-07-13T06:27:36;3.77;;;3.47;;
819;SDS011;392;48.838;2.322;2023-07-13T06:30:03;2.90;;;2.70;;
819;SDS011;392;48.838;2.322;2023-07-13T06:32:32;3.43;;;3.23;;
819;SDS011;392;48.838;2.322;2023-07-13T06:34:59;3.27;;;2.70;;
819;SDS011;392;48.838;2.322;2023-07-13T06:37:27;4.07;;;2.80;;
819;SDS011;392;48.838;2.322;2023-07-13T06:39:54;3.50;;;3.07;;
819;SDS011;392;48.838;2.322;2023-07-13T06:42:23;3.00;;;2.80;;
819;SDS011;392;48.838;2.322;2023-07-13T06:44:50;2.73;;;2.53;;
819;SDS011;392;48.838;2.322;2023-07-13T06:47:17;2.73;;;2.63;;
819;SDS011;392;48.838;2.322;2023-07-13T06:49:45;3.97;;;3.57;;
819;SDS011;392;48.838;2.322;2023-07-13T06:52:12;3.27;;;2.97;;
819;SDS011;392;48.838;2.322;2023-07-13T06:54:39;5.93;;;2.77;;
819;SDS011;392;48.838;2.322;2023-07-13T06:57:07;2.70;;;2.50;;
819;SDS011;392;48.838;2.322;2023-07-13T06:59:35;2.60;;;2.50;;
819;SDS011;392;48.838;2.322;2023-07-13T07:02:03;2.60;;;2.47;;
819;SDS011;392;48.838;2.322;2023-07-13T07:04:32;3.03;;;2.83;;
819;SDS011;392;48.838;2.322;2023-07-13T07:06:59;3.10;;;2.90;;
819;SDS011;392;48.838;2.322;2023-07-13T07:09:26;3.83;;;2.67;;
819;SDS011;392;48.838;2.322;2023-07-13T07:11:55;5.00;;;2.87;;
819;SDS011;392;48.838;2.322;2023-07-13T07:14:22;9.87;;;4.37;;
819;SDS011;392;48.838;2.322;2023-07-13T07:16:51;3.97;;;3.60;;
819;SDS011;392;48.838;2.322;2023-07-13T07:19:19;2.63;;;2.43;;
819;SDS011;392;48.838;2.322;2023-07-13T07:21:46;5.43;;;3.13;;
819;SDS011;392;48.838;2.322;2023-07-13T07:24:13;3.07;;;2.87;;
819;SDS011;392;48.838;2.322;2023-07-13T07:26:41;3.90;;;3.57;;
819;SDS011;392;48.838;2.322;2023-07-13T07:29:08;3.33;;;3.23;;
819;SDS011;392;48.838;2.322;2023-07-13T07:31:35;4.87;;;4.43;;
819;SDS011;392;48.838;2.322;2023-07-13T07:34:05;4.77;;;4.37;;
819;SDS011;392;48.838;2.322;2023-07-13T07:36:32;4.60;;;4.00;;
819;SDS011;392;48.838;2.322;2023-07-13T07:38:59;4.63;;;4.27;;
819;SDS011;392;48.838;2.322;2023-07-13T07:41:27;4.57;;;4.20;;
819;SDS011;392;48.838;2.322;2023-07-13T07:43:54;3.90;;;3.60;;
819;SDS011;392;48.838;2.322;2023-07-13T07:46:21;4.70;;;4.40;;
819;SDS011;392;48.838;2.322;2023-07-13T07:48:49;3.93;;;3.73;;
819;SDS011;392;48.838;2.322;2023-07-13T07:51:17;3.93;;;3.73;;
819;SDS011;392;48.838;2.322;2023-07-13T07:53:44;5.03;;;4.63;;
819;SDS011;392;48.838;2.322;2023-07-13T07:56:12;4.07;;;3.77;;
819;SDS011;392;48.838;2.322;2023-07-13T07:58:41;4.40;;;4.00;;
819;SDS011;392;48.838;2.322;2023-07-13T08:01:09;5.77;;;4.20;;
819;SDS011;392;48.838;2.322;2023-07-13T08:03:36;4.37;;;4.00;;
819;SDS011;392;48.838;2.322;2023-07-13T08:06:03;4.20;;;3.90;;
819;SDS011;392;48.838;2.322;2023-07-13T08:08:32;3.80;;;3.53;;
819;SDS011;392;48.838;2.322;2023-07-13T08:11:01;5.07;;;4.57;;
819;SDS011;392;48.838;2.322;2023-07-13T08:13:30;5.50;;;4.97;;
819;SDS011;392;48.838;2.322;2023-07-13T08:15:58;4.60;;;4.30;;
819;SDS011;392;48.838;2.322;2023-07-13T08:18:25;4.87;;;4.57;;
819;SDS011;392;48.838;2.322;2023-07-13T08:20:53;4.60;;;4.30;;
819;SDS011;392;48.838;2.322;2023-07-13T08:23:21;4.33;;;4.00;;
819;SDS011;392;48.838;2.322;2023-07-13T08:25:53;5.37;;;4.97;;
819;SDS011;392;48.838;2.322;2023-07-13T08:28:22;3.80;;;3.60;;
819;SDS011;392;48.838;2.322;2023-07-13T08:30:49;4.63;;;4.03;;
819;SDS011;392;48.838;2.322;2023-07-13T08:33:17;5.97;;;5.37;;
819;SDS011;392;48.838;2.322;2023-07-13T08:35:46;4.53;;;4.17;;
819;SDS011;392;48.838;2.322;2023-07-13T08:38:13;4.20;;;3.80;;
819;SDS011;392;48.838;2.322;2023-07-13T08:40:42;4.30;;;3.90;;
819;SDS011;392;48.838;2.322;2023-07-13T08:43:22;3.60;;;3.30;;
819;SDS011;392;48.838;2.322;2023-07-13T08:45:54;4.47;;;4.17;;
819;SDS011;392;48.838;2.322;2023-07-13T08:48:28;4.57;;;4.17;;
819;SDS011;392;48.838;2.322;2023-07-13T08:51:02;5.07;;;4.33;;
819;SDS011;392;48.838;2.322;2023-07-13T08:53:40;4.20;;;3.83;;
819;SDS011;392;48.838;2.322;2023-07-13T08:56:19;4.63;;;4.33;;
819;SDS011;392;48.838;2.322;2023-07-13T08:58:51;4.00;;;3.70;;
819;SDS011;392;48.838;2.322;2023-07-13T09:01:24;4.80;;;4.40;;
819;SDS011;392;48.838;2.322;2023-07-13T09:03:59;4.10;;;3.80;;
819;SDS011;392;48.838;2.322;2023-07-13T09:06:34;4.00;;;3.80;;
819;SDS011;392;48.838;2.322;2023-07-13T09:09:19;3.60;;;3.40;;
819;SDS011;392;48.838;2.322;2023-07-13T09:12:00;4.13;;;3.60;;
819;SDS011;392;48.838;2.322;2023-07-13T09:14:38;4.23;;;3.50;;
819;SDS011;392;48.838;2.322;2023-07-13T09:17:11;3.70;;;3.50;;
819;SDS011;392;48.838;2.322;2023-07-13T09:19:44;3.87;;;3.77;;
819;SDS011;392;48.838;2.322;2023-07-13T09:22:17;3.80;;;3.50;;
819;SDS011;392;48.838;2.322;2023-07-13T09:24:50;3.77;;;3.57;;
819;SDS011;392;48.838;2.322;2023-07-13T09:27:26;4.43;;;4.03;;
819;SDS011;392;48.838;2.322;2023-07-13T09:30:02;4.57;;;4.27;;
819;SDS011;392;48.838;2.322;2023-07-13T09:32:48;6.63;;;5.80;;
819;SDS011;392;48.838;2.322;2023-07-13T09:35:19;4.07;;;3.77;;
819;SDS011;392;48.838;2.322;2023-07-13T09:37:56;5.07;;;4.77;;
819;SDS011;392;48.838;2.322;2023-07-13T09:40:30;4.87;;;3.87;;
819;SDS011;392;48.838;2.322;2023-07-13T09:43:07;5.27;;;4.77;;
819;SDS011;392;48.838;2.322;2023-07-13T09:45:38;4.50;;;4.20;;
819;SDS011;392;48.838;2.322;2023-07-13T09:48:07;3.30;;;3.10;;
819;SDS011;392;48.838;2.322;2023-07-13T09:50:39;4.33;;;3.93;;
819;SDS011;392;48.838;2.322;2023-07-13T09:53:11;3.77;;;3.50;;
819;SDS011;392;48.838;2.322;2023-07-13T09:55:40;5.50;;;3.60;;
819;SDS011;392;48.838;2.322;2023-07-13T09:58:10;3.40;;;3.10;;
819;SDS011;392;48.838;2.322;2023-07-13T10:00:42;3.60;;;3.30;;
819;SDS011;392;48.838;2.322;2023-07-13T10:03:21;3.37;;;3.07;;
819;SDS011;392;48.838;2.322;2023-07-13T10:05:51;3.47;;;3.20;;
819;SDS011;392;48.838;2.322;2023-07-13T10:08:24;3.93;;;3.63;;
819;SDS011;392;48.838;2.322;2023-07-13T10:10:59;3.53;;;3.23;;
819;SDS011;392;48.838;2.322;2023-07-13T10:13:35;6.43;;;4.20;;
819;SDS011;392;48.838;2.322;2023-07-13T10:16:10;4.33;;;3.40;;
819;SDS011;392;48.838;2.322;2023-07-13T10:18:39;3.57;;;3.37;;
819;SDS011;392;48.838;2.322;2023-07-13T10:21:14;3.30;;;3.10;;
819;SDS011;392;48.838;2.322;2023-07-13T10:23:45;4.50;;;4.10;;
819;SDS011;392;48.838;2.322;2023-07-13T10:26:19;3.20;;;2.90;;
819;SDS011;392;48.838;2.322;2023-07-13T10:28:51;3.50;;;3.20;;
819;SDS011;392;48.838;2.322;2023-07-13T10:31:24;4.27;;;3.47;;
819;SDS011;392;48.838;2.322;2023-07-13T10:33:51;3.43;;;2.90;;
819;SDS011;392;48.838;2.322;2023-07-13T10:36:26;3.00;;;2.80;;
819;SDS011;392;48.838;2.322;2023-07-13T10:39:00;3.07;;;2.87;;
819;SDS011;392;48.838;2.322;2023-07-13T10:41:33;3.00;;;2.70;;
819;SDS011;392;48.838;2.322;2023-07-13T10:44:06;3.23;;;3.03;;
819;SDS011;392;48.838;2.322;2023-07-13T10:46:44;2.77;;;2.57;;
819;SDS011;392;48.838;2.322;2023-07-13T10:49:12;4.50;;;2.70;;
819;SDS011;392;48.838;2.322;2023-07-13T10:51:40;2.87;;;2.67;;
819;SDS011;392;48.838;2.322;2023-07-13T10:54:12;2.70;;;2.60;;
819;SDS011;392;48.838;2.322;2023-07-13T10:56:45;3.00;;;2.70;;
819;SDS011;392;48.838;2.322;2023-07-13T10:59:14;2.73;;;2.60;;
819;SDS011;392;48.838;2.322;2023-07-13T11:01:53;3.03;;;2.77;;
819;SDS011;392;48.838;2.322;2023-07-13T11:04:24;3.10;;;2.90;;
819;SDS011;392;48.838;2.322;2023-07-13T11:06:56;2.70;;;2.50;;
819;SDS011;392;48.838;2.322;2023-07-13T11:09:33;2.90;;;2.70;;
819;SDS011;392;48.838;2.322;2023-07-13T11:12:07;3.00;;;2.80;;
819;SDS011;392;48.838;2.322;2023-07-13T11:15:04;3.10;;;2.90;;
819;SDS011;392;48.838;2.322;2023-07-13T11:17:46;3.67;;;3.37;;
819;SDS011;392;48.838;2.322;2023-07-13T11:23:09;4.27;;;3.67;;
819;SDS011;392;48.838;2.322;2023-07-13T11:25:54;3.00;;;2.80;;
819;SDS011;392;48.838;2.322;2023-07-13T11:28:22;3.27;;;3.07;;
819;SDS011;392;48.838;2.322;2023-07-13T11:34:01;3.40;;;3.20;;
819;SDS011;392;48.838;2.322;2023-07-13T11:36:35;2.97;;;2.77;;
819;SDS011;392;48.838;2.322;2023-07-13T11:39:15;3.17;;;2.97;;
819;SDS011;392;48.838;2.322;2023-07-13T11:41:49;3.60;;;3.40;;
819;SDS011;392;48.838;2.322;2023-07-13T11:44:21;3.40;;;3.20;;
819;SDS011;392;48.838;2.322;2023-07-13T11:46:53;3.70;;;3.60;;
819;SDS011;392;48.838;2.322;2023-07-13T11:49:25;3.47;;;3.27;;
819;SDS011;392;48.838;2.322;2023-07-13T11:51:55;2.93;;;2.80;;
819;SDS011;392;48.838;2.322;2023-07-13T11:54:26;3.50;;;3.30;;
819;SDS011;392;48.838;2.322;2023-07-13T11:56:57;3.47;;;3.27;;
819;SDS011;392;48.838;2.322;2023-07-13T11:59:29;3.73;;;3.47;;
819;SDS011;392;48.838;2.322;2023-07-13T12:01:58;3.20;;;3.00;;
819;SDS011;392;48.838;2.322;2023-07-13T12:04:29;3.47;;;3.27;;
819;SDS011;392;48.838;2.322;2023-07-13T12:07:03;2.97;;;2.87;;
819;SDS011;392;48.838;2.322;2023-07-13T12:09:34;4.00;;;3.70;;
819;SDS011;392;48.838;2.322;2023-07-13T12:12:02;3.57;;;3.37;;
819;SDS011;392;48.838;2.322;2023-07-13T12:14:37;3.63;;;3.43;;
819;SDS011;392;48.838;2.322;2023-07-13T12:17:08;3.67;;;3.40;;
819;SDS011;392;48.838;2.322;2023-07-13T12:19:43;3.73;;;3.50;;
819;SDS011;392;48.838;2.322;2023-07-13T12:22:11;3.17;;;2.97;;
819;SDS011;392;48.838;2.322;2023-07-13T12:24:41;3.20;;;2.93;;
819;SDS011;392;48.838;2.322;2023-07-13T12:27:14;2.97;;;2.87;;
819;SDS011;392;48.838;2.322;2023-07-13T12:29:51;3.00;;;2.80;;
819;SDS011;392;48.838;2.322;2023-07-13T12:32:20;3.10;;;2.90;;
819;SDS011;392;48.838;2.322;2023-07-13T12:34:54;2.70;;;2.60;;
819;SDS011;392;48.838;2.322;2023-07-13T12:37:25;2.50;;;2.37;;
819;SDS011;392;48.838;2.322;2023-07-13T12:39:53;3.13;;;3.03;;
819;SDS011;392;48.838;2.322;2023-07-13T12:42:23;2.57;;;2.33;;
819;SDS011;392;48.838;2.322;2023-07-13T12:44:53;3.30;;;3.10;;
819;SDS011;392;48.838;2.322;2023-07-13T12:47:23;2.77;;;2.67;;
819;SDS011;392;48.838;2.322;2023-07-13T12:49:53;2.77;;;2.67;;
819;SDS011;392;48.838;2.322;2023-07-13T12:52:28;3.73;;;2.70;;
819;SDS011;392;48.838;2.322;2023-07-13T12:54:58;2.67;;;2.57;;
819;SDS011;392;48.838;2.322;2023-07-13T12:57:31;2.40;;;2.30;;
819;SDS011;392;48.838;2.322;2023-07-13T12:59:59;2.50;;;2.40;;
819;SDS011;392;48.838;2.322;2023-07-13T13:02:32;2.60;;;2.50;;
819;SDS011;392;48.838;2.322;2023-07-13T13:05:03;2.30;;;2.20;;
819;SDS011;392;48.838;2.322;2023-07-13T13:07:31;2.50;;;2.40;;
819;SDS011;392;48.838;2.322;2023-07-13T13:09:59;2.43;;;2.33;;
819;SDS011;392;48.838;2.322;2023-07-13T13:12:27;2.40;;;2.30;;
819;SDS011;392;48.838;2.322;2023-07-13T13:14:54;2.57;;;2.47;;
819;SDS011;392;48.838;2.322;2023-07-13T13:17:22;2.17;;;2.07;;
819;SDS011;392;48.838;2.322;2023-07-13T13:19:53;2.30;;;2.20;;
819;SDS011;392;48.838;2.322;2023-07-13T13:22:22;2.60;;;2.37;;
819;SDS011;392;48.838;2.322;2023-07-13T13:24:50;2.57;;;2.47;;
819;SDS011;392;48.838;2.322;2023-07-13T13:27:19;2.50;;;2.40;;
819;SDS011;392;48.838;2.322;2023-07-13T13:29:49;2.87;;;2.73;;
819;SDS011;392;48.838;2.322;2023-07-13T13:32:18;2.47;;;2.37;;
819;SDS011;392;48.838;2.322;2023-07-13T13:34:45;2.93;;;2.73;;
819;SDS011;392;48.838;2.322;2023-07-13T13:37:16;2.50;;;2.40;;
819;SDS011;392;48.838;2.322;2023-07-13T13:39:47;2.80;;;2.70;;
819;SDS011;392;48.838;2.322;2023-07-13T13:42:17;3.33;;;2.73;;
819;SDS011;392;48.838;2.322;2023-07-13T13:44:46;2.60;;;2.50;;
819;SDS011;392;48.838;2.322;2023-07-13T13:47:19;4.43;;;3.80;;
819;SDS011;392;48.838;2.322;2023-07-13T13:49:56;2.80;;;2.70;;
819;SDS011;392;48.838;2.322;2023-07-13T13:52:24;2.70;;;2.60;;
819;SDS011;392;48.838;2.322;2023-07-13T13:54:53;3.00;;;2.90;;
819;SDS011;392;48.838;2.322;2023-07-13T13:57:22;2.53;;;2.33;;
819;SDS011;392;48.838;2.322;2023-07-13T13:59:50;2.30;;;2.20;;
819;SDS011;392;48.838;2.322;2023-07-13T14:02:25;3.10;;;2.90;;
819;SDS011;392;48.838;2.322;2023-07-13T14:04:58;2.60;;;2.50;;
819;SDS011;392;48.838;2.322;2023-07-13T14:07:28;2.63;;;2.50;;
819;SDS011;392;48.838;2.322;2023-07-13T14:09:58;3.27;;;2.80;;
819;SDS011;392;48.838;2.322;2023-07-13T14:12:27;2.50;;;2.40;;
819;SDS011;392;48.838;2.322;2023-07-13T14:14:56;2.67;;;2.57;;
819;SDS011;392;48.838;2.322;2023-07-13T14:17:24;2.27;;;2.17;;
819;SDS011;392;48.838;2.322;2023-07-13T14:19:53;2.57;;;2.47;;
819;SDS011;392;48.838;2.322;2023-07-13T14:22:23;4.13;;;2.83;;
819;SDS011;392;48.838;2.322;2023-07-13T14:24:51;2.80;;;2.63;;
819;SDS011;392;48.838;2.322;2023-07-13T14:27:22;2.70;;;2.53;;
819;SDS011;392;48.838;2.322;2023-07-13T14:29:51;2.90;;;2.80;;
819;SDS011;392;48.838;2.322;2023-07-13T14:32:18;2.43;;;2.33;;
819;SDS011;392;48.838;2.322;2023-07-13T14:34:46;2.83;;;2.73;;
819;SDS011;392;48.838;2.322;2023-07-13T14:37:13;2.80;;;2.60;;
819;SDS011;392;48.838;2.322;2023-07-13T14:39:42;2.57;;;2.40;;
819;SDS011;392;48.838;2.322;2023-07-13T14:42:11;3.00;;;2.80;;
819;SDS011;392;48.838;2.322;2023-07-13T14:44:40;3.00;;;2.87;;
819;SDS011;392;48.838;2.322;2023-07-13T14:47:07;2.73;;;2.63;;
819;SDS011;392;48.838;2.322;2023-07-13T14:49:37;3.30;;;2.90;;
819;SDS011;392;48.838;2.322;2023-07-13T14:52:09;2.53;;;2.43;;
819;SDS011;392;48.838;2.322;2023-07-13T14:54:40;2.40;;;2.30;;
819;SDS011;392;48.838;2.322;2023-07-13T14:57:09;2.80;;;2.60;;
819;SDS011;392;48.838;2.322;2023-07-13T14:59:39;3.00;;;2.80;;
819;SDS011;392;48.838;2.322;2023-07-13T15:02:13;2.80;;;2.60;;
819;SDS011;392;48.838;2.322;2023-07-13T15:04:42;3.00;;;2.90;;
819;SDS011;392;48.838;2.322;2023-07-13T15:07:10;2.60;;;2.40;;
819;SDS011;392;48.838;2.322;2023-07-13T15:09:38;2.67;;;2.50;;
819;SDS011;392;48.838;2.322;2023-07-13T15:12:06;2.77;;;2.60;;
819;SDS011;392;48.838;2.322;2023-07-13T15:14:34;3.10;;;3.00;;
819;SDS011;392;48.838;2.322;2023-07-13T15:17:03;3.30;;;3.20;;
819;SDS011;392;48.838;2.322;2023-07-13T15:19:31;2.83;;;2.63;;
819;SDS011;392;48.838;2.322;2023-07-13T15:21:59;2.90;;;2.70;;
819;SDS011;392;48.838;2.322;2023-07-13T15:24:27;3.40;;;3.20;;
819;SDS011;392;48.838;2.322;2023-07-13T15:26:56;2.97;;;2.77;;
819;SDS011;392;48.838;2.322;2023-07-13T15:29:23;2.57;;;2.47;;
819;SDS011;392;48.838;2.322;2023-07-13T15:31:51;2.87;;;2.70;;
819;SDS011;392;48.838;2.322;2023-07-13T15:34:20;2.67;;;2.57;;
819;SDS011;392;48.838;2.322;2023-07-13T15:36:51;3.20;;;3.00;;
819;SDS011;392;48.838;2.322;2023-07-13T15:39:18;3.03;;;2.93;;
819;SDS011;392;48.838;2.322;2023-07-13T15:41:46;2.63;;;2.47;;
819;SDS011;392;48.838;2.322;2023-07-13T15:44:21;2.90;;;2.80;;
819;SDS011;392;48.838;2.322;2023-07-13T15:46:52;3.07;;;2.87;;
819;SDS011;392;48.838;2.322;2023-07-13T15:49:21;2.87;;;2.67;;
819;SDS011;392;48.838;2.322;2023-07-13T15:51:49;3.07;;;2.87;;
819;SDS011;392;48.838;2.322;2023-07-13T15:54:17;3.43;;;3.23;;
819;SDS011;392;48.838;2.322;2023-07-13T15:56:47;2.83;;;2.73;;
819;SDS011;392;48.838;2.322;2023-07-13T15:59:19;3.10;;;2.93;;
819;SDS011;392;48.838;2.322;2023-07-13T16:01:47;2.83;;;2.73;;
819;SDS011;392;48.838;2.322;2023-07-13T16:04:15;3.37;;;3.17;;
819;SDS011;392;48.838;2.322;2023-07-13T16:06:46;2.87;;;2.67;;
819;SDS011;392;48.838;2.322;2023-07-13T16:09:17;3.00;;;2.73;;